sensor_id;sensor_type;location;lat;lon;timestamp;pressure;altitude;pressure_sealevel;temperature;humidity
35778;BME280;21899;42.662;23.316;2023-02-28T00:00:20;94840.06;;;6.75;100.00
35778;BME280;21899;42.662;23.316;2023-02-28T00:02:47;94833.31;;;6.62;100.00
35778;BME280;21899;42.662;23.316;2023-02-28T00:05:15;94843.09;;;6.58;100.00
35778;BME280;21899;42.662;23.316;2023-02-28T00:07:41;94847.59;;;6.73;100.00
35778;BME280;21899;42.662;23.316;2023-02-28T00:10:09;94823.94;;;6.68;100.00
35778;BME280;21899;42.662;23.316;2023-02-28T00:12:36;94834.72;;;6.75;100.00
35778;BME280;21899;42.662;23.316;2023-02-28T00:15:07;94839.63;;;6.73;100.00
35778;BME280;21899;42.662;23.316;2023-02-28T00:17:33;94828.34;;;6.60;100.00
35778;BME280;21899;42.662;23.316;2023-02-28T00:19:58;94847.44;;;6.66;100.00
35778;BME280;21899;42.662;23.316;2023-02-28T00:22:27;94859.25;;;6.84;100.00
35778;BME280;21899;42.662;23.316;2023-02-28T00:24:53;94842.44;;;6.80;100.00
35778;BME280;21899;42.662;23.316;2023-02-28T00:27:18;94854.69;;;6.85;100.00
35778;BME280;21899;42.662;23.316;2023-02-28T00:29:46;94848.63;;;6.84;100.00
35778;BME280;21899;42.662;23.316;2023-02-28T00:32:12;94853.25;;;6.87;100.00
35778;BME280;21899;42.662;23.316;2023-02-28T00:34:37;94854.34;;;6.86;100.00
35778;BME280;21899;42.662;23.316;2023-02-28T00:37:07;94857.78;;;6.87;100.00
35778;BME280;21899;42.662;23.316;2023-02-28T00:39:34;94853.72;;;6.74;100.00
35778;BME280;21899;42.662;23.316;2023-02-28T00:42:00;94853.63;;;6.70;100.00
35778;BME280;21899;42.662;23.316;2023-02-28T00:44:25;94859.75;;;6.55;100.00
35778;BME280;21899;42.662;23.316;2023-02-28T00:46:51;94846.16;;;6.41;100.00
35778;BME280;21899;42.662;23.316;2023-02-28T00:49:17;94840.16;;;6.44;100.00
35778;BME280;21899;42.662;23.316;2023-02-28T00:51:42;94849.16;;;6.39;100.00
35778;BME280;21899;42.662;23.316;2023-02-28T00:54:08;94853.09;;;6.30;100.00
35778;BME280;21899;42.662;23.316;2023-02-28T00:56:33;94849.09;;;6.36;100.00
35778;BME280;21899;42.662;23.316;2023-02-28T00:58:58;94838.91;;;6.22;100.00
35778;BME280;21899;42.662;23.316;2023-02-28T01:01:24;94854.06;;;6.22;100.00
35778;BME280;21899;42.662;23.316;2023-02-28T01:03:49;94844.28;;;6.26;100.00
35778;BME280;21899;42.662;23.316;2023-02-28T01:06:15;94847.22;;;6.21;100.00
35778;BME280;21899;42.662;23.316;2023-02-28T01:08:40;94836.31;;;6.10;100.00
35778;BME280;21899;42.662;23.316;2023-02-28T01:11:13;94849.78;;;6.02;100.00
35778;BME280;21899;42.662;23.316;2023-02-28T01:13:40;94844.66;;;5.93;100.00
35778;BME280;21899;42.662;23.316;2023-02-28T01:16:06;94841.75;;;5.83;100.00
35778;BME280;21899;42.662;23.316;2023-02-28T01:18:31;94834.50;;;5.68;100.00
35778;BME280;21899;42.662;23.316;2023-02-28T01:20:56;94844.25;;;5.64;100.00
35778;BME280;21899;42.662;23.316;2023-02-28T01:23:23;94837.22;;;5.56;100.00
35778;BME280;21899;42.662;23.316;2023-02-28T01:25:50;94838.78;;;5.57;100.00
35778;BME280;21899;42.662;23.316;2023-02-28T01:28:15;94842.78;;;5.51;100.00
35778;BME280;21899;42.662;23.316;2023-02-28T01:30:41;94837.13;;;5.52;100.00
35778;BME280;21899;42.662;23.316;2023-02-28T01:33:06;94837.66;;;5.58;100.00
35778;BME280;21899;42.662;23.316;2023-02-28T01:35:33;94846.84;;;5.60;100.00
35778;BME280;21899;42.662;23.316;2023-02-28T01:37:58;94846.41;;;5.74;100.00
35778;BME280;21899;42.662;23.316;2023-02-28T01:40:24;94837.59;;;5.70;100.00
35778;BME280;21899;42.662;23.316;2023-02-28T01:42:49;94846.84;;;5.76;100.00
35778;BME280;21899;42.662;23.316;2023-02-28T01:47:46;94845.22;;;5.71;100.00
35778;BME280;21899;42.662;23.316;2023-02-28T01:50:19;94852.41;;;5.71;100.00
35778;BME280;21899;42.662;23.316;2023-02-28T01:52:46;94846.91;;;5.64;100.00
35778;BME280;21899;42.662;23.316;2023-02-28T01:55:15;94850.09;;;5.69;100.00
35778;BME280;21899;42.662;23.316;2023-02-28T01:57:49;94835.44;;;5.75;100.00
35778;BME280;21899;42.662;23.316;2023-02-28T02:00:20;94852.59;;;5.78;100.00
35778;BME280;21899;42.662;23.316;2023-02-28T02:02:49;94861.19;;;5.87;100.00
35778;BME280;21899;42.662;23.316;2023-02-28T02:05:21;94850.78;;;5.82;100.00
35778;BME280;21899;42.662;23.316;2023-02-28T02:07:51;94858.00;;;5.97;100.00
35778;BME280;21899;42.662;23.316;2023-02-28T02:10:18;94855.44;;;6.16;100.00
35778;BME280;21899;42.662;23.316;2023-02-28T02:15:26;94845.13;;;6.30;100.00
35778;BME280;21899;42.662;23.316;2023-02-28T02:17:57;94836.50;;;6.33;100.00
35778;BME280;21899;42.662;23.316;2023-02-28T02:35:14;94843.53;;;6.60;100.00
35778;BME280;21899;42.662;23.316;2023-02-28T02:40:19;94844.66;;;6.59;100.00
35778;BME280;21899;42.662;23.316;2023-02-28T02:42:52;94838.91;;;6.57;100.00
35778;BME280;21899;42.662;23.316;2023-02-28T02:45:27;94846.72;;;6.50;100.00
35778;BME280;21899;42.662;23.316;2023-02-28T02:48:01;94857.53;;;6.57;100.00
35778;BME280;21899;42.662;23.316;2023-02-28T02:50:32;94850.94;;;6.51;100.00
35778;BME280;21899;42.662;23.316;2023-02-28T02:53:01;94837.47;;;6.44;100.00
35778;BME280;21899;42.662;23.316;2023-02-28T02:55:29;94849.69;;;6.29;100.00
35778;BME280;21899;42.662;23.316;2023-02-28T02:58:02;94841.97;;;6.09;100.00
35778;BME280;21899;42.662;23.316;2023-02-28T03:00:39;94851.22;;;6.15;100.00
35778;BME280;21899;42.662;23.316;2023-02-28T03:03:07;94850.81;;;6.13;100.00
35778;BME280;21899;42.662;23.316;2023-02-28T03:05:50;94873.63;;;6.29;100.00
35778;BME280;21899;42.662;23.316;2023-02-28T03:08:16;94868.47;;;6.21;100.00
35778;BME280;21899;42.662;23.316;2023-02-28T03:10:44;94873.63;;;6.14;100.00
35778;BME280;21899;42.662;23.316;2023-02-28T03:21:37;94881.94;;;6.12;100.00
35778;BME280;21899;42.662;23.316;2023-02-28T03:24:27;94893.41;;;6.32;100.00
35778;BME280;21899;42.662;23.316;2023-02-28T03:27:07;94896.25;;;6.39;100.00
35778;BME280;21899;42.662;23.316;2023-02-28T03:29:45;94887.66;;;6.45;100.00
35778;BME280;21899;42.662;23.316;2023-02-28T03:32:27;94889.53;;;6.45;100.00
35778;BME280;21899;42.662;23.316;2023-02-28T03:35:02;94908.84;;;6.42;100.00
35778;BME280;21899;42.662;23.316;2023-02-28T03:37:32;94902.41;;;6.43;100.00
35778;BME280;21899;42.662;23.316;2023-02-28T03:40:13;94890.06;;;6.35;100.00
35778;BME280;21899;42.662;23.316;2023-02-28T03:42:42;94901.47;;;6.35;100.00
35778;BME280;21899;42.662;23.316;2023-02-28T03:45:15;94900.94;;;6.30;100.00
35778;BME280;21899;42.662;23.316;2023-02-28T03:47:48;94912.09;;;6.20;100.00
35778;BME280;21899;42.662;23.316;2023-02-28T03:50:31;94913.16;;;6.00;100.00
35778;BME280;21899;42.662;23.316;2023-02-28T03:53:09;94911.50;;;6.11;100.00
35778;BME280;21899;42.662;23.316;2023-02-28T03:55:45;94903.72;;;6.18;100.00
35778;BME280;21899;42.662;23.316;2023-02-28T03:58:55;94919.66;;;6.33;100.00
35778;BME280;21899;42.662;23.316;2023-02-28T04:01:40;94913.66;;;6.21;100.00
35778;BME280;21899;42.662;23.316;2023-02-28T04:04:10;94920.00;;;6.16;100.00
35778;BME280;21899;42.662;23.316;2023-02-28T04:06:37;94901.66;;;6.11;100.00
35778;BME280;21899;42.662;23.316;2023-02-28T04:09:04;94920.19;;;6.08;100.00
35778;BME280;21899;42.662;23.316;2023-02-28T04:11:38;94910.56;;;6.03;100.00
35778;BME280;21899;42.662;23.316;2023-02-28T04:14:06;94918.63;;;5.91;100.00
35778;BME280;21899;42.662;23.316;2023-02-28T04:16:32;94898.16;;;5.64;100.00
35778;BME280;21899;42.662;23.316;2023-02-28T04:18:58;94897.44;;;5.52;100.00
35778;BME280;21899;42.662;23.316;2023-02-28T04:21:28;94907.88;;;5.45;100.00
35778;BME280;21899;42.662;23.316;2023-02-28T04:23:53;94905.06;;;5.53;100.00
35778;BME280;21899;42.662;23.316;2023-02-28T04:26:18;94908.06;;;5.52;100.00
35778;BME280;21899;42.662;23.316;2023-02-28T04:28:44;94896.03;;;5.42;100.00
35778;BME280;21899;42.662;23.316;2023-02-28T04:31:09;94908.06;;;5.52;100.00
35778;BME280;21899;42.662;23.316;2023-02-28T04:33:35;94904.13;;;5.61;100.00
35778;BME280;21899;42.662;23.316;2023-02-28T04:36:07;94899.31;;;5.51;100.00
35778;BME280;21899;42.662;23.316;2023-02-28T04:38:37;94908.66;;;5.61;100.00
35778;BME280;21899;42.662;23.316;2023-02-28T04:41:04;94908.44;;;5.66;100.00
35778;BME280;21899;42.662;23.316;2023-02-28T04:43:30;94911.19;;;5.69;100.00
35778;BME280;21899;42.662;23.316;2023-02-28T04:45:56;94912.94;;;5.50;100.00
35778;BME280;21899;42.662;23.316;2023-02-28T04:48:24;94907.03;;;5.56;100.00
35778;BME280;21899;42.662;23.316;2023-02-28T04:50:50;94913.13;;;5.57;100.00
35778;BME280;21899;42.662;23.316;2023-02-28T04:53:15;94920.84;;;5.62;100.00
35778;BME280;21899;42.662;23.316;2023-02-28T04:55:41;94933.00;;;5.63;100.00
35778;BME280;21899;42.662;23.316;2023-02-28T04:58:06;94934.88;;;5.62;100.00
35778;BME280;21899;42.662;23.316;2023-02-28T05:00:32;94939.72;;;5.72;100.00
35778;BME280;21899;42.662;23.316;2023-02-28T05:02:57;94951.53;;;5.75;100.00
35778;BME280;21899;42.662;23.316;2023-02-28T05:05:22;94929.31;;;5.67;100.00
35778;BME280;21899;42.662;23.316;2023-02-28T05:07:48;94944.50;;;5.67;100.00
35778;BME280;21899;42.662;23.316;2023-02-28T05:10:13;94934.53;;;5.64;100.00
35778;BME280;21899;42.662;23.316;2023-02-28T05:12:39;94941.09;;;5.82;100.00
35778;BME280;21899;42.662;23.316;2023-02-28T05:15:04;94936.59;;;5.82;100.00
35778;BME280;21899;42.662;23.316;2023-02-28T05:17:30;94928.91;;;5.93;100.00
35778;BME280;21899;42.662;23.316;2023-02-28T05:19:56;94942.38;;;6.00;100.00
35778;BME280;21899;42.662;23.316;2023-02-28T05:22:21;94946.13;;;5.99;100.00
35778;BME280;21899;42.662;23.316;2023-02-28T05:24:47;94939.72;;;6.00;100.00
35778;BME280;21899;42.662;23.316;2023-02-28T05:27:12;94952.47;;;6.10;100.00
35778;BME280;21899;42.662;23.316;2023-02-28T05:29:38;94948.22;;;6.21;100.00
35778;BME280;21899;42.662;23.316;2023-02-28T05:32:09;94955.16;;;6.25;100.00
35778;BME280;21899;42.662;23.316;2023-02-28T05:34:36;94960.63;;;6.17;100.00
35778;BME280;21899;42.662;23.316;2023-02-28T05:37:02;94950.09;;;6.05;100.00
35778;BME280;21899;42.662;23.316;2023-02-28T05:39:27;94958.66;;;6.14;100.00
35778;BME280;21899;42.662;23.316;2023-02-28T05:41:52;94953.34;;;6.14;100.00
35778;BME280;21899;42.662;23.316;2023-02-28T05:44:18;94966.38;;;6.19;100.00
35778;BME280;21899;42.662;23.316;2023-02-28T05:46:43;94974.88;;;6.40;100.00
35778;BME280;21899;42.662;23.316;2023-02-28T05:49:08;94975.50;;;6.49;100.00
35778;BME280;21899;42.662;23.316;2023-02-28T05:51:34;94976.75;;;6.55;100.00
35778;BME280;21899;42.662;23.316;2023-02-28T05:54:01;94978.22;;;6.68;100.00
35778;BME280;21899;42.662;23.316;2023-02-28T05:56:28;94986.63;;;6.70;100.00
35778;BME280;21899;42.662;23.316;2023-02-28T05:58:53;94982.84;;;6.71;100.00
35778;BME280;21899;42.662;23.316;2023-02-28T06:01:41;94984.75;;;6.55;100.00
35778;BME280;21899;42.662;23.316;2023-02-28T06:04:09;94963.16;;;6.41;100.00
35778;BME280;21899;42.662;23.316;2023-02-28T06:06:35;94976.19;;;6.46;100.00
35778;BME280;21899;42.662;23.316;2023-02-28T06:09:01;94976.69;;;6.36;100.00
35778;BME280;21899;42.662;23.316;2023-02-28T06:11:27;94976.00;;;6.39;100.00
35778;BME280;21899;42.662;23.316;2023-02-28T06:14:02;94956.19;;;6.52;100.00
35778;BME280;21899;42.662;23.316;2023-02-28T06:16:29;94976.78;;;6.71;100.00
35778;BME280;21899;42.662;23.316;2023-02-28T06:18:57;94963.44;;;6.86;100.00
35778;BME280;21899;42.662;23.316;2023-02-28T06:21:23;94976.16;;;6.77;100.00
35778;BME280;21899;42.662;23.316;2023-02-28T06:23:49;94979.41;;;6.86;100.00
35778;BME280;21899;42.662;23.316;2023-02-28T06:26:14;94970.97;;;7.00;100.00
35778;BME280;21899;42.662;23.316;2023-02-28T06:28:39;94973.28;;;7.01;100.00
35778;BME280;21899;42.662;23.316;2023-02-28T06:31:10;94987.31;;;7.17;100.00
35778;BME280;21899;42.662;23.316;2023-02-28T06:33:37;94974.59;;;7.26;100.00
35778;BME280;21899;42.662;23.316;2023-02-28T06:36:04;94984.97;;;7.31;100.00
35778;BME280;21899;42.662;23.316;2023-02-28T06:38:30;94986.56;;;7.36;100.00
35778;BME280;21899;42.662;23.316;2023-02-28T06:40:57;94988.44;;;7.16;100.00
35778;BME280;21899;42.662;23.316;2023-02-28T06:43:24;94992.44;;;7.26;100.00
35778;BME280;21899;42.662;23.316;2023-02-28T06:45:50;94999.47;;;7.34;100.00
35778;BME280;21899;42.662;23.316;2023-02-28T06:48:15;94996.59;;;7.42;100.00
35778;BME280;21899;42.662;23.316;2023-02-28T06:50:41;95001.38;;;7.52;100.00
35778;BME280;21899;42.662;23.316;2023-02-28T06:53:06;94997.03;;;7.44;100.00
35778;BME280;21899;42.662;23.316;2023-02-28T06:55:32;95000.47;;;7.45;100.00
35778;BME280;21899;42.662;23.316;2023-02-28T06:57:58;95008.38;;;7.41;100.00
35778;BME280;21899;42.662;23.316;2023-02-28T07:00:23;95004.94;;;7.41;100.00
35778;BME280;21899;42.662;23.316;2023-02-28T07:02:50;95005.66;;;7.38;100.00
35778;BME280;21899;42.662;23.316;2023-02-28T07:05:15;95006.72;;;7.52;100.00
35778;BME280;21899;42.662;23.316;2023-02-28T07:07:40;94995.34;;;7.55;100.00
35778;BME280;21899;42.662;23.316;2023-02-28T07:10:12;95004.47;;;7.35;100.00
35778;BME280;21899;42.662;23.316;2023-02-28T07:12:38;95004.25;;;7.44;100.00
35778;BME280;21899;42.662;23.316;2023-02-28T07:15:05;94999.28;;;7.42;100.00
35778;BME280;21899;42.662;23.316;2023-02-28T07:17:30;94996.22;;;7.40;100.00
35778;BME280;21899;42.662;23.316;2023-02-28T07:19:56;95000.59;;;7.33;100.00
35778;BME280;21899;42.662;23.316;2023-02-28T07:22:21;95007.84;;;7.17;100.00
35778;BME280;21899;42.662;23.316;2023-02-28T07:24:46;95000.63;;;7.17;100.00
35778;BME280;21899;42.662;23.316;2023-02-28T07:27:12;95008.78;;;7.24;100.00
35778;BME280;21899;42.662;23.316;2023-02-28T07:29:37;95007.19;;;7.39;100.00
35778;BME280;21899;42.662;23.316;2023-02-28T07:32:03;95003.63;;;7.50;100.00
35778;BME280;21899;42.662;23.316;2023-02-28T07:34:29;95002.25;;;7.56;100.00
35778;BME280;21899;42.662;23.316;2023-02-28T07:36:54;94998.44;;;7.57;100.00
35778;BME280;21899;42.662;23.316;2023-02-28T07:39:21;94999.78;;;7.67;100.00
35778;BME280;21899;42.662;23.316;2023-02-28T07:41:47;95010.38;;;7.82;100.00
35778;BME280;21899;42.662;23.316;2023-02-28T07:44:12;95005.03;;;7.82;100.00
35778;BME280;21899;42.662;23.316;2023-02-28T07:46:38;95006.88;;;7.97;100.00
35778;BME280;21899;42.662;23.316;2023-02-28T07:49:04;95009.25;;;8.03;100.00
35778;BME280;21899;42.662;23.316;2023-02-28T07:51:30;95005.66;;;8.14;100.00
35778;BME280;21899;42.662;23.316;2023-02-28T07:53:56;95001.91;;;8.19;100.00
35778;BME280;21899;42.662;23.316;2023-02-28T07:56:21;95001.50;;;8.36;100.00
35778;BME280;21899;42.662;23.316;2023-02-28T07:58:47;94992.84;;;8.42;100.00
35778;BME280;21899;42.662;23.316;2023-02-28T08:01:12;94986.38;;;8.43;100.00
35778;BME280;21899;42.662;23.316;2023-02-28T08:03:39;94998.59;;;8.67;100.00
35778;BME280;21899;42.662;23.316;2023-02-28T08:06:06;94990.13;;;8.84;100.00
35778;BME280;21899;42.662;23.316;2023-02-28T08:08:32;94993.41;;;9.00;100.00
35778;BME280;21899;42.662;23.316;2023-02-28T08:10:59;94994.56;;;8.99;100.00
35778;BME280;21899;42.662;23.316;2023-02-28T08:13:26;94995.72;;;9.01;100.00
35778;BME280;21899;42.662;23.316;2023-02-28T08:15:53;94989.34;;;9.09;100.00
35778;BME280;21899;42.662;23.316;2023-02-28T08:18:19;94994.13;;;9.23;100.00
35778;BME280;21899;42.662;23.316;2023-02-28T08:20:44;95004.50;;;9.28;100.00
35778;BME280;21899;42.662;23.316;2023-02-28T08:23:10;95007.66;;;9.34;100.00
35778;BME280;21899;42.662;23.316;2023-02-28T08:25:35;95011.47;;;9.36;100.00
35778;BME280;21899;42.662;23.316;2023-02-28T08:28:00;95007.72;;;9.41;100.00
35778;BME280;21899;42.662;23.316;2023-02-28T08:30:26;95013.31;;;9.58;100.00
35778;BME280;21899;42.662;23.316;2023-02-28T08:32:51;95003.69;;;9.50;100.00
35778;BME280;21899;42.662;23.316;2023-02-28T08:35:17;95013.13;;;9.44;100.00
35778;BME280;21899;42.662;23.316;2023-02-28T08:37:42;95011.63;;;9.47;100.00
35778;BME280;21899;42.662;23.316;2023-02-28T08:40:08;95009.13;;;9.31;100.00
35778;BME280;21899;42.662;23.316;2023-02-28T08:42:34;95014.34;;;9.24;100.00
35778;BME280;21899;42.662;23.316;2023-02-28T08:44:59;95017.44;;;9.26;100.00
35778;BME280;21899;42.662;23.316;2023-02-28T08:47:25;95015.63;;;9.07;100.00
35778;BME280;21899;42.662;23.316;2023-02-28T08:49:50;95002.56;;;8.99;100.00
35778;BME280;21899;42.662;23.316;2023-02-28T08:52:15;95007.69;;;9.11;100.00
35778;BME280;21899;42.662;23.316;2023-02-28T08:54:41;95014.16;;;9.10;100.00
35778;BME280;21899;42.662;23.316;2023-02-28T08:57:06;95025.03;;;9.24;100.00
35778;BME280;21899;42.662;23.316;2023-02-28T08:59:32;95018.94;;;9.23;100.00
35778;BME280;21899;42.662;23.316;2023-02-28T09:01:57;95012.81;;;9.23;100.00
35778;BME280;21899;42.662;23.316;2023-02-28T09:04:23;95017.13;;;9.31;100.00
35778;BME280;21899;42.662;23.316;2023-02-28T09:06:48;95017.66;;;9.40;100.00
35778;BME280;21899;42.662;23.316;2023-02-28T09:09:14;95016.94;;;9.43;100.00
35778;BME280;21899;42.662;23.316;2023-02-28T09:11:41;95019.28;;;9.48;100.00
35778;BME280;21899;42.662;23.316;2023-02-28T09:14:07;95004.44;;;9.51;100.00
35778;BME280;21899;42.662;23.316;2023-02-28T09:16:33;95018.84;;;9.72;100.00
35778;BME280;21899;42.662;23.316;2023-02-28T09:18:59;95011.31;;;9.81;100.00
35778;BME280;21899;42.662;23.316;2023-02-28T09:21:25;95006.03;;;9.85;100.00
35778;BME280;21899;42.662;23.316;2023-02-28T09:23:50;95008.84;;;9.99;100.00
35778;BME280;21899;42.662;23.316;2023-02-28T09:26:22;95001.66;;;10.03;100.00
35778;BME280;21899;42.662;23.316;2023-02-28T09:28:48;95010.94;;;10.12;100.00
35778;BME280;21899;42.662;23.316;2023-02-28T09:31:16;94999.34;;;10.05;100.00
35778;BME280;21899;42.662;23.316;2023-02-28T09:33:41;95003.28;;;10.11;100.00
35778;BME280;21899;42.662;23.316;2023-02-28T09:36:07;95002.72;;;10.31;100.00
35778;BME280;21899;42.662;23.316;2023-02-28T09:38:33;95008.63;;;10.44;100.00
35778;BME280;21899;42.662;23.316;2023-02-28T09:41:01;95006.63;;;10.37;100.00
35778;BME280;21899;42.662;23.316;2023-02-28T09:43:36;95004.50;;;10.53;100.00
35778;BME280;21899;42.662;23.316;2023-02-28T09:48:45;94994.03;;;10.41;100.00
35778;BME280;21899;42.662;23.316;2023-02-28T09:51:25;95001.16;;;10.27;100.00
35778;BME280;21899;42.662;23.316;2023-02-28T09:53:52;95002.50;;;10.10;100.00
35778;BME280;21899;42.662;23.316;2023-02-28T09:56:25;94998.78;;;10.18;100.00
35778;BME280;21899;42.662;23.316;2023-02-28T09:59:04;94999.69;;;10.33;100.00
35778;BME280;21899;42.662;23.316;2023-02-28T10:04:18;94978.81;;;10.45;100.00
35778;BME280;21899;42.662;23.316;2023-02-28T10:06:51;94983.81;;;10.50;100.00
35778;BME280;21899;42.662;23.316;2023-02-28T10:09:24;94975.88;;;10.61;100.00
35778;BME280;21899;42.662;23.316;2023-02-28T10:11:54;94965.19;;;10.65;100.00
35778;BME280;21899;42.662;23.316;2023-02-28T10:14:23;94979.06;;;10.74;100.00
35778;BME280;21899;42.662;23.316;2023-02-28T10:17:10;94973.44;;;10.93;100.00
35778;BME280;21899;42.662;23.316;2023-02-28T10:19:55;94960.41;;;10.88;100.00
35778;BME280;21899;42.662;23.316;2023-02-28T10:22:38;94969.53;;;10.80;100.00
35778;BME280;21899;42.662;23.316;2023-02-28T10:25:26;94961.56;;;10.87;100.00
35778;BME280;21899;42.662;23.316;2023-02-28T10:28:00;94968.69;;;10.69;100.00
35778;BME280;21899;42.662;23.316;2023-02-28T10:30:27;94963.66;;;10.64;100.00
35778;BME280;21899;42.662;23.316;2023-02-28T10:32:53;94959.41;;;10.56;100.00
35778;BME280;21899;42.662;23.316;2023-02-28T10:35:22;94945.66;;;10.57;100.00
35778;BME280;21899;42.662;23.316;2023-02-28T10:37:50;94943.84;;;10.72;100.00
35778;BME280;21899;42.662;23.316;2023-02-28T10:45:39;94937.16;;;11.67;96.85
35778;BME280;21899;42.662;23.316;2023-02-28T10:50:43;94922.66;;;11.82;95.39
35778;BME280;21899;42.662;23.316;2023-02-28T11:01:44;94913.47;;;11.90;93.34
35778;BME280;21899;42.662;23.316;2023-02-28T11:07:01;94901.19;;;11.82;93.34
35778;BME280;21899;42.662;23.316;2023-02-28T11:09:31;94902.38;;;11.95;92.81
35778;BME280;21899;42.662;23.316;2023-02-28T11:11:58;94900.47;;;11.82;91.70
35778;BME280;21899;42.662;23.316;2023-02-28T11:14:31;94896.91;;;11.60;93.56
35778;BME280;21899;42.662;23.316;2023-02-28T11:17:11;94889.22;;;11.62;93.27
35778;BME280;21899;42.662;23.316;2023-02-28T11:19:45;94897.34;;;11.69;92.79
35778;BME280;21899;42.662;23.316;2023-02-28T11:22:21;94894.25;;;11.67;93.13
35778;BME280;21899;42.662;23.316;2023-02-28T11:24:51;94898.88;;;11.66;93.39
35778;BME280;21899;42.662;23.316;2023-02-28T11:29:59;94888.72;;;11.25;95.24
35778;BME280;21899;42.662;23.316;2023-02-28T11:32:30;94890.56;;;11.14;96.45
35778;BME280;21899;42.662;23.316;2023-02-28T11:37:37;94878.63;;;10.97;96.88
35778;BME280;21899;42.662;23.316;2023-02-28T11:40:13;94874.00;;;10.98;97.63
35778;BME280;21899;42.662;23.316;2023-02-28T11:45:43;94879.00;;;11.03;97.87
35778;BME280;21899;42.662;23.316;2023-02-28T11:48:20;94889.72;;;11.03;98.16
35778;BME280;21899;42.662;23.316;2023-02-28T11:50:54;94868.78;;;11.22;97.90
35778;BME280;21899;42.662;23.316;2023-02-28T11:53:33;94880.38;;;11.51;95.64
35778;BME280;21899;42.662;23.316;2023-02-28T11:56:06;94878.88;;;11.50;95.87
35778;BME280;21899;42.662;23.316;2023-02-28T12:06:50;94864.25;;;11.33;96.58
35778;BME280;21899;42.662;23.316;2023-02-28T12:17:37;94856.59;;;11.39;95.44
35778;BME280;21899;42.662;23.316;2023-02-28T12:20:22;94851.53;;;11.16;95.91
35778;BME280;21899;42.662;23.316;2023-02-28T12:25:34;94873.34;;;11.15;95.75
35778;BME280;21899;42.662;23.316;2023-02-28T12:28:09;94866.47;;;11.21;95.15
35778;BME280;21899;42.662;23.316;2023-02-28T12:30:41;94868.84;;;11.33;94.55
35778;BME280;21899;42.662;23.316;2023-02-28T12:33:13;94859.31;;;11.49;93.32
35778;BME280;21899;42.662;23.316;2023-02-28T12:35:48;94873.53;;;11.53;91.91
35778;BME280;21899;42.662;23.316;2023-02-28T12:38:19;94859.66;;;11.30;92.28
35778;BME280;21899;42.662;23.316;2023-02-28T12:40:53;94864.22;;;11.30;92.52
35778;BME280;21899;42.662;23.316;2023-02-28T12:43:20;94870.47;;;11.55;92.35
35778;BME280;21899;42.662;23.316;2023-02-28T12:45:52;94859.78;;;11.69;92.15
35778;BME280;21899;42.662;23.316;2023-02-28T12:48:35;94860.22;;;11.85;90.42
35778;BME280;21899;42.662;23.316;2023-02-28T12:51:03;94865.19;;;11.79;89.97
35778;BME280;21899;42.662;23.316;2023-02-28T12:59:10;94856.56;;;11.28;91.09
35778;BME280;21899;42.662;23.316;2023-02-28T13:04:43;94862.75;;;11.43;91.74
35778;BME280;21899;42.662;23.316;2023-02-28T13:07:36;94848.19;;;11.40;91.52
35778;BME280;21899;42.662;23.316;2023-02-28T13:10:07;94853.53;;;11.37;91.07
35778;BME280;21899;42.662;23.316;2023-02-28T13:12:34;94857.31;;;11.22;91.82
35778;BME280;21899;42.662;23.316;2023-02-28T13:17:37;94859.28;;;11.32;91.85
35778;BME280;21899;42.662;23.316;2023-02-28T13:20:04;94856.97;;;11.34;91.69
35778;BME280;21899;42.662;23.316;2023-02-28T13:22:42;94852.00;;;11.36;92.07
35778;BME280;21899;42.662;23.316;2023-02-28T13:28:01;94848.16;;;11.33;89.77
35778;BME280;21899;42.662;23.316;2023-02-28T13:44:18;94844.34;;;11.38;88.45
35778;BME280;21899;42.662;23.316;2023-02-28T13:54:57;94823.72;;;11.52;87.34
35778;BME280;21899;42.662;23.316;2023-02-28T14:05:32;94805.69;;;11.46;86.68
35778;BME280;21899;42.662;23.316;2023-02-28T14:08:04;94818.81;;;11.72;85.99
35778;BME280;21899;42.662;23.316;2023-02-28T14:10:39;94836.09;;;11.82;85.25
35778;BME280;21899;42.662;23.316;2023-02-28T14:13:36;94816.84;;;11.62;86.12
35778;BME280;21899;42.662;23.316;2023-02-28T14:16:03;94828.31;;;11.52;87.17
35778;BME280;21899;42.662;23.316;2023-02-28T14:18:34;94820.19;;;11.20;88.92
35778;BME280;21899;42.662;23.316;2023-02-28T14:21:23;94828.22;;;11.27;89.16
35778;BME280;21899;42.662;23.316;2023-02-28T14:29:37;94834.72;;;11.23;91.22
35778;BME280;21899;42.662;23.316;2023-02-28T14:34:50;94829.72;;;11.18;90.66
35778;BME280;21899;42.662;23.316;2023-02-28T14:37:24;94840.00;;;11.05;90.93
35778;BME280;21899;42.662;23.316;2023-02-28T14:39:51;94824.63;;;10.92;92.65
35778;BME280;21899;42.662;23.316;2023-02-28T14:42:37;94827.63;;;10.80;94.01
35778;BME280;21899;42.662;23.316;2023-02-28T14:45:17;94831.75;;;10.67;95.54
35778;BME280;21899;42.662;23.316;2023-02-28T14:47:43;94830.56;;;10.61;96.35
35778;BME280;21899;42.662;23.316;2023-02-28T14:50:27;94840.81;;;10.51;96.70
35778;BME280;21899;42.662;23.316;2023-02-28T14:52:55;94830.78;;;10.38;97.96
35778;BME280;21899;42.662;23.316;2023-02-28T14:55:36;94839.94;;;10.33;98.16
35778;BME280;21899;42.662;23.316;2023-02-28T14:58:04;94829.16;;;10.26;98.60
35778;BME280;21899;42.662;23.316;2023-02-28T15:00:47;94839.16;;;10.29;98.37
35778;BME280;21899;42.662;23.316;2023-02-28T15:03:22;94831.50;;;10.31;98.86
35778;BME280;21899;42.662;23.316;2023-02-28T15:05:57;94839.31;;;10.07;100.00
35778;BME280;21899;42.662;23.316;2023-02-28T15:08:23;94832.78;;;10.04;100.00
35778;BME280;21899;42.662;23.316;2023-02-28T15:11:04;94822.78;;;9.94;100.00
35778;BME280;21899;42.662;23.316;2023-02-28T15:13:45;94825.34;;;9.84;100.00
35778;BME280;21899;42.662;23.316;2023-02-28T15:16:41;94828.72;;;9.77;100.00